createdAt,value
2018-02-05T00:01:14.420Z,17.10
2018-02-05T00:03:42.821Z,17.90
2018-02-05T00:06:11.287Z,27.77
2018-02-05T00:08:39.746Z,25.47
2018-02-05T00:11:08.173Z,21.73
2018-02-05T00:13:36.575Z,20.03
2018-02-05T00:16:05.054Z,18.67
2018-02-05T00:18:33.486Z,18.27
2018-02-05T00:21:01.890Z,19.63
2018-02-05T00:23:30.422Z,18.90
2018-02-05T00:25:58.837Z,20.83
2018-02-05T00:28:27.246Z,20.07
2018-02-05T00:30:55.684Z,20.07
2018-02-05T00:33:24.088Z,18.30
2018-02-05T00:35:52.500Z,18.23
2018-02-05T00:38:20.959Z,17.60
2018-02-05T00:40:49.363Z,18.93
2018-02-05T00:43:17.804Z,18.67
2018-02-05T00:45:46.264Z,18.90
2018-02-05T00:48:14.696Z,16.10
2018-02-05T00:50:43.131Z,19.70
2018-02-05T00:53:11.623Z,22.13
2018-02-05T00:55:40.050Z,20.57
2018-02-05T00:58:08.453Z,21.73
2018-02-05T01:00:36.911Z,20.80
2018-02-05T01:03:05.324Z,21.80
2018-02-05T01:05:33.756Z,21.33
2018-02-05T01:08:02.194Z,21.63
2018-02-05T01:10:30.580Z,21.97
2018-02-05T01:12:58.992Z,20.90
2018-02-05T01:15:27.460Z,22.93
2018-02-05T01:17:55.858Z,24.73
2018-02-05T01:20:24.267Z,24.57
2018-02-05T01:22:52.956Z,22.87
2018-02-05T01:25:21.419Z,24.70
2018-02-05T01:27:49.831Z,23.13
2018-02-05T01:30:18.278Z,27.20
2018-02-05T01:32:46.693Z,23.43
2018-02-05T01:35:15.100Z,26.00
2018-02-05T01:37:43.553Z,25.40
2018-02-05T01:40:11.974Z,23.43
2018-02-05T01:42:40.373Z,25.87
2018-02-05T01:45:08.853Z,23.57
2018-02-05T01:47:37.261Z,24.27
2018-02-05T01:50:05.667Z,25.87
2018-02-05T01:52:34.145Z,25.73
2018-02-05T01:55:02.545Z,24.93
2018-02-05T01:57:30.959Z,23.27
2018-02-05T01:59:59.470Z,24.67
2018-02-05T02:02:27.874Z,24.50
2018-02-05T02:04:56.278Z,28.23
2018-02-05T02:07:24.719Z,25.80
2018-02-05T02:09:53.118Z,22.87
2018-02-05T02:12:21.517Z,27.30
2018-02-05T02:14:49.983Z,24.27
2018-02-05T02:17:18.474Z,31.77
2018-02-05T02:19:46.940Z,30.53
2018-02-05T02:22:15.437Z,28.17
2018-02-05T02:24:43.857Z,25.50
2018-02-05T02:27:12.261Z,25.40
2018-02-05T02:29:40.760Z,24.27
2018-02-05T02:32:09.187Z,24.57
2018-02-05T02:34:37.620Z,24.40
2018-02-05T02:37:06.095Z,25.73
2018-02-05T02:39:34.511Z,28.57
2018-02-05T02:42:02.929Z,27.17
2018-02-05T02:44:31.380Z,32.33
2018-02-05T02:46:59.826Z,27.07
2018-02-05T02:49:28.240Z,23.03
2018-02-05T02:51:56.685Z,26.90
2018-02-05T02:54:25.082Z,23.97
2018-02-05T02:56:53.517Z,31.07
2018-02-05T02:59:21.969Z,30.70
2018-02-05T03:01:50.379Z,29.07
2018-02-05T03:04:18.808Z,32.67
2018-02-05T03:06:47.280Z,28.70
2018-02-05T03:09:15.704Z,31.60
2018-02-05T03:11:44.121Z,29.73
2018-02-05T03:14:12.741Z,28.17
2018-02-05T03:16:41.170Z,29.43
2018-02-05T03:19:09.586Z,30.30
2018-02-05T03:21:38.077Z,29.23
2018-02-05T03:24:06.490Z,26.73
2018-02-05T03:26:34.909Z,27.67
2018-02-05T03:29:03.392Z,30.20
2018-02-05T03:31:31.807Z,26.00
2018-02-05T03:34:00.213Z,30.70
2018-02-05T03:36:28.653Z,29.87
2018-02-05T03:38:57.067Z,29.67
2018-02-05T03:41:25.521Z,29.73
2018-02-05T03:43:53.978Z,27.83
2018-02-05T03:46:22.406Z,25.90
2018-02-05T03:48:50.811Z,28.30
2018-02-05T03:51:19.284Z,27.53
2018-02-05T03:53:47.689Z,26.47
2018-02-05T03:56:16.102Z,26.63
2018-02-05T03:58:44.558Z,27.47
2018-02-05T04:01:12.953Z,25.73
2018-02-05T04:03:41.357Z,26.03
2018-02-05T04:06:09.837Z,26.00
2018-02-05T04:08:38.274Z,27.83
2018-02-05T04:11:06.699Z,27.60
2018-02-05T04:13:35.200Z,25.53
2018-02-05T04:16:03.612Z,23.67
2018-02-05T04:18:32.050Z,24.70
2018-02-05T04:21:00.532Z,25.10
2018-02-05T04:23:28.961Z,24.10
2018-02-05T04:25:57.372Z,22.67
2018-02-05T04:28:26.087Z,25.20
2018-02-05T04:30:54.501Z,28.10
2018-02-05T04:33:22.940Z,27.00
2018-02-05T04:35:51.405Z,28.27
2018-02-05T04:38:19.835Z,28.90
2018-02-05T04:40:48.242Z,29.93
2018-02-05T04:43:16.703Z,29.33
2018-02-05T04:45:45.120Z,29.03
2018-02-05T04:48:13.538Z,30.83
2018-02-05T04:50:42.001Z,30.97
2018-02-05T04:53:10.403Z,29.10
2018-02-05T04:55:38.807Z,30.53
2018-02-05T04:58:07.291Z,29.93
2018-02-05T05:00:35.716Z,28.57
2018-02-05T05:03:04.131Z,29.20
2018-02-05T05:05:32.593Z,29.93
2018-02-05T05:08:01.005Z,29.23
2018-02-05T05:10:29.433Z,29.40
2018-02-05T05:12:57.905Z,28.30
2018-02-05T05:15:26.326Z,28.47
2018-02-05T05:17:54.735Z,26.47
2018-02-05T05:20:23.216Z,27.10
2018-02-05T05:22:51.645Z,27.53
2018-02-05T05:25:20.077Z,27.80
2018-02-05T05:27:48.536Z,26.93
2018-02-05T05:30:16.933Z,28.23
2018-02-05T05:32:45.321Z,26.23
2018-02-05T05:35:13.793Z,27.67
2018-02-05T05:37:42.215Z,27.50
2018-02-05T05:40:10.641Z,26.77
2018-02-05T05:42:39.105Z,26.13
2018-02-05T05:45:07.540Z,25.57
2018-02-05T05:47:35.945Z,26.13
2018-02-05T05:50:04.404Z,28.07
2018-02-05T05:52:32.808Z,24.87
2018-02-05T05:55:01.226Z,23.33
2018-02-05T05:57:29.673Z,24.90
2018-02-05T05:59:58.100Z,25.47
2018-02-05T06:02:26.537Z,26.63
2018-02-05T06:04:54.980Z,26.83
2018-02-05T06:07:23.404Z,25.20
2018-02-05T06:09:51.821Z,25.40
2018-02-05T06:12:20.306Z,25.00
2018-02-05T06:14:48.724Z,25.00
2018-02-05T06:17:17.130Z,25.20
2018-02-05T06:19:45.576Z,25.03
2018-02-05T06:22:13.981Z,25.50
2018-02-05T06:24:42.386Z,25.90
2018-02-05T06:27:10.849Z,26.13
2018-02-05T06:29:39.266Z,24.83
2018-02-05T06:32:07.670Z,26.30
2018-02-05T06:34:36.142Z,25.27
2018-02-05T06:37:04.553Z,23.37
2018-02-05T06:39:32.962Z,25.00
2018-02-05T06:42:01.398Z,25.00
2018-02-05T06:44:29.793Z,23.80
2018-02-05T06:46:58.210Z,26.23
2018-02-05T06:49:26.684Z,25.60
2018-02-05T06:52:06.802Z,25.13
2018-02-05T06:54:47.134Z,23.67
2018-02-05T06:57:15.532Z,25.27
2018-02-05T06:59:43.938Z,23.70
2018-02-05T07:02:12.421Z,24.93
2018-02-05T07:04:40.820Z,26.07
2018-02-05T07:07:09.241Z,24.33
2018-02-05T07:09:37.689Z,23.77
2018-02-05T07:12:06.095Z,24.40
2018-02-05T07:14:34.493Z,24.37
2018-02-05T07:17:02.929Z,24.90
2018-02-05T07:19:31.322Z,27.07
2018-02-05T07:21:59.744Z,25.40
2018-02-05T07:24:28.179Z,26.70
2018-02-05T07:26:56.569Z,25.67
2018-02-05T07:29:24.978Z,26.50
2018-02-05T07:31:53.460Z,26.27
2018-02-05T07:34:21.872Z,24.27
2018-02-05T07:36:50.275Z,24.53
2018-02-05T07:39:18.738Z,24.27
2018-02-05T07:41:47.129Z,24.47
2018-02-05T07:44:15.528Z,24.53
2018-02-05T07:46:43.965Z,27.40
2018-02-05T07:49:12.384Z,24.50
2018-02-05T07:51:40.774Z,26.73
2018-02-05T07:54:09.238Z,25.37
2018-02-05T07:56:37.660Z,23.73
2018-02-05T07:59:06.062Z,26.87
2018-02-05T08:01:34.497Z,26.87
2018-02-05T08:04:02.908Z,24.90
2018-02-05T08:06:31.321Z,25.20
2018-02-05T08:08:59.762Z,24.87
2018-02-05T08:11:28.171Z,25.93
2018-02-05T08:13:56.580Z,24.83
2018-02-05T08:16:25.042Z,25.57
2018-02-05T08:18:53.461Z,25.30
2018-02-05T08:21:21.849Z,25.53
2018-02-05T08:23:50.295Z,24.17
2018-02-05T08:26:18.705Z,25.57
2018-02-05T08:28:47.106Z,23.93
2018-02-05T08:31:15.572Z,25.20
2018-02-05T08:33:43.985Z,25.50
2018-02-05T08:36:12.381Z,26.23
2018-02-05T08:38:40.825Z,25.43
2018-02-05T08:41:09.436Z,25.20
2018-02-05T08:43:37.857Z,24.87
2018-02-05T08:46:06.385Z,25.27
2018-02-05T08:48:34.779Z,24.97
2018-02-05T08:51:03.175Z,25.30
2018-02-05T08:53:31.638Z,26.17
2018-02-05T08:56:00.033Z,24.97
2018-02-05T08:58:28.430Z,27.13
2018-02-05T09:00:56.897Z,24.87
2018-02-05T09:03:25.297Z,25.53
2018-02-05T09:05:53.714Z,24.77
2018-02-05T09:08:22.166Z,24.73
2018-02-05T09:10:50.567Z,24.50
2018-02-05T09:13:18.958Z,23.87
2018-02-05T09:15:47.420Z,22.17
2018-02-05T09:18:15.819Z,21.87
2018-02-05T09:20:44.232Z,24.07
2018-02-05T09:23:12.713Z,22.27
2018-02-05T09:25:41.133Z,21.53
2018-02-05T09:28:09.554Z,21.27
2018-02-05T09:30:37.992Z,21.47
2018-02-05T09:33:06.417Z,22.13
2018-02-05T09:35:34.825Z,22.00
2018-02-05T09:38:03.278Z,21.93
2018-02-05T09:40:31.687Z,20.73
2018-02-05T09:43:00.298Z,22.30
2018-02-05T09:45:28.750Z,22.07
2018-02-05T09:47:57.159Z,22.27
2018-02-05T09:50:25.547Z,21.00
2018-02-05T09:52:54.008Z,20.27
2018-02-05T09:55:22.431Z,20.27
2018-02-05T09:57:50.820Z,20.00
2018-02-05T10:00:19.270Z,19.27
2018-02-05T10:02:47.690Z,18.03
2018-02-05T10:05:16.110Z,16.93
2018-02-05T10:07:44.573Z,15.93
2018-02-05T10:10:12.971Z,17.63
2018-02-05T10:12:41.392Z,18.17
2018-02-05T10:15:09.849Z,18.20
2018-02-05T10:17:38.269Z,19.07
2018-02-05T10:20:06.665Z,18.10
2018-02-05T10:22:35.442Z,18.33
2018-02-05T10:25:03.870Z,16.83
2018-02-05T10:27:32.277Z,16.57
2018-02-05T10:30:00.753Z,15.93
2018-02-05T10:32:29.148Z,16.70
2018-02-05T10:34:57.629Z,14.17
2018-02-05T10:37:26.267Z,14.67
2018-02-05T10:39:54.729Z,15.80
2018-02-05T10:42:23.136Z,16.60
2018-02-05T10:44:51.596Z,17.00
2018-02-05T10:47:20.013Z,15.70
2018-02-05T10:49:48.428Z,16.73
2018-02-05T10:52:16.893Z,16.87
2018-02-05T10:54:46.208Z,16.57
2018-02-05T10:57:14.602Z,16.20
2018-02-05T10:59:43.076Z,14.27
2018-02-05T11:02:11.521Z,15.73
2018-02-05T11:04:39.933Z,16.23
2018-02-05T11:07:08.369Z,15.50
2018-02-05T11:09:36.780Z,15.63
2018-02-05T11:12:05.201Z,14.93
2018-02-05T11:14:33.661Z,14.43
2018-02-05T11:17:02.060Z,14.70
2018-02-05T11:19:30.468Z,15.77
2018-02-05T11:21:58.927Z,14.50
2018-02-05T11:24:27.353Z,15.70
2018-02-05T11:26:55.746Z,16.17
2018-02-05T11:29:24.272Z,16.63
2018-02-05T11:31:52.677Z,16.50
2018-02-05T11:34:21.061Z,17.07
2018-02-05T11:36:49.499Z,17.40
2018-02-05T11:39:17.913Z,16.27
2018-02-05T11:41:46.328Z,17.60
2018-02-05T11:44:14.776Z,16.60
2018-02-05T11:46:43.177Z,17.93
2018-02-05T11:49:11.588Z,17.70
2018-02-05T11:51:40.041Z,17.73
2018-02-05T11:54:08.456Z,17.63
2018-02-05T11:56:36.864Z,16.23
2018-02-05T11:59:05.320Z,17.13
2018-02-05T12:01:33.732Z,16.00
2018-02-05T12:04:02.128Z,16.60
2018-02-05T12:06:30.566Z,16.63
2018-02-05T12:08:59.221Z,16.90
2018-02-05T12:11:27.633Z,16.03
2018-02-05T12:13:56.110Z,16.37
2018-02-05T12:16:24.522Z,17.87
2018-02-05T12:18:52.909Z,16.97
2018-02-05T12:21:21.377Z,17.37
2018-02-05T12:23:49.797Z,17.60
2018-02-05T12:26:18.195Z,16.63
2018-02-05T12:28:46.659Z,15.87
2018-02-05T12:31:15.078Z,16.10
2018-02-05T12:33:43.485Z,17.90
2018-02-05T12:36:11.930Z,17.10
2018-02-05T12:38:40.317Z,17.10
2018-02-05T12:41:08.735Z,16.03
2018-02-05T12:43:37.169Z,16.77
2018-02-05T12:46:05.569Z,16.43
2018-02-05T12:48:33.969Z,15.60
2018-02-05T12:51:02.409Z,15.37
2018-02-05T12:53:30.827Z,15.83
2018-02-05T12:55:59.338Z,15.33
2018-02-05T12:58:27.812Z,14.40
2018-02-05T13:00:58.209Z,15.40
2018-02-05T13:03:40.548Z,16.03
2018-02-05T13:06:11.856Z,15.80
2018-02-05T13:08:40.328Z,15.63
2018-02-05T13:11:08.718Z,15.87
2018-02-05T13:13:37.125Z,17.53
2018-02-05T13:16:05.570Z,16.40
2018-02-05T13:18:33.992Z,17.53
2018-02-05T13:21:02.377Z,16.50
2018-02-05T13:23:30.818Z,15.80
2018-02-05T13:25:59.225Z,15.13
2018-02-05T13:28:27.649Z,15.23
2018-02-05T13:30:56.111Z,16.13
2018-02-05T13:33:24.517Z,16.67
2018-02-05T13:35:52.916Z,17.23
2018-02-05T13:38:21.362Z,17.27
2018-02-05T13:40:49.772Z,17.07
2018-02-05T13:43:18.178Z,15.53
2018-02-05T13:45:46.620Z,17.10
2018-02-05T13:48:15.046Z,16.27
2018-02-05T13:50:43.482Z,16.97
2018-02-05T13:53:12.132Z,18.30
2018-02-05T13:55:40.555Z,17.70
2018-02-05T13:58:08.969Z,18.77
2018-02-05T14:00:37.424Z,18.47
2018-02-05T14:03:05.832Z,18.27
2018-02-05T14:05:34.304Z,17.97
2018-02-05T14:08:02.737Z,18.50
2018-02-05T14:10:31.148Z,16.60
2018-02-05T14:12:59.577Z,17.60
2018-02-05T14:15:28.038Z,17.20
2018-02-05T14:17:56.434Z,17.87
2018-02-05T14:20:24.847Z,17.83
2018-02-05T14:22:53.294Z,17.53
2018-02-05T14:25:21.699Z,16.23
2018-02-05T14:27:50.086Z,16.37
2018-02-05T14:30:18.557Z,17.03
2018-02-05T14:32:46.950Z,16.30
2018-02-05T14:35:15.365Z,16.80
2018-02-05T14:37:43.834Z,16.50
2018-02-05T14:40:12.257Z,16.93
2018-02-05T14:42:40.669Z,18.63
2018-02-05T14:45:09.124Z,15.33
2018-02-05T14:47:37.552Z,15.93
2018-02-05T14:50:05.961Z,16.47
2018-02-05T14:52:34.402Z,15.27
2018-02-05T14:55:02.793Z,15.27
2018-02-05T14:57:31.189Z,15.67
2018-02-05T14:59:59.652Z,15.77
2018-02-05T15:02:28.052Z,15.90
2018-02-05T15:04:56.451Z,19.00
2018-02-05T15:07:24.895Z,19.20
2018-02-05T15:09:53.310Z,17.50
2018-02-05T15:12:21.710Z,16.77
2018-02-05T15:14:50.146Z,23.43
2018-02-05T15:17:18.550Z,19.43
2018-02-05T15:19:46.950Z,21.87
2018-02-05T15:22:15.391Z,21.10
2018-02-05T15:24:43.797Z,20.10
2018-02-05T15:27:12.217Z,21.37
2018-02-05T15:29:40.705Z,29.80
2018-02-05T15:32:09.105Z,26.30
2018-02-05T15:34:37.513Z,17.50
2018-02-05T15:37:05.972Z,23.13
2018-02-05T15:39:34.383Z,19.23
2018-02-05T15:42:02.805Z,18.23
2018-02-05T15:44:31.420Z,16.73
2018-02-05T15:46:59.831Z,15.93
2018-02-05T15:49:28.248Z,17.23
2018-02-05T15:51:56.690Z,16.97
2018-02-05T15:54:25.083Z,17.57
2018-02-05T15:56:53.520Z,17.13
2018-02-05T15:59:22.006Z,17.07
2018-02-05T16:01:50.403Z,16.60
2018-02-05T16:04:18.823Z,16.90
2018-02-05T16:06:47.257Z,19.97
2018-02-05T16:09:15.655Z,16.43
2018-02-05T16:11:44.061Z,17.53
2018-02-05T16:14:12.525Z,18.03
2018-02-05T16:16:40.943Z,18.03
2018-02-05T16:19:09.345Z,16.70
2018-02-05T16:21:37.796Z,17.63
2018-02-05T16:24:06.213Z,21.63
2018-02-05T16:26:34.624Z,21.47
2018-02-05T16:29:03.058Z,21.03
2018-02-05T16:31:31.449Z,21.00
2018-02-05T16:33:59.835Z,17.90
2018-02-05T16:36:28.278Z,20.47
2018-02-05T16:38:56.688Z,19.73
2018-02-05T16:41:25.080Z,19.47
2018-02-05T16:43:53.514Z,21.07
2018-02-05T16:46:21.918Z,21.30
2018-02-05T16:48:50.389Z,22.40
2018-02-05T16:51:18.833Z,21.07
2018-02-05T16:53:47.233Z,21.47
2018-02-05T16:56:15.626Z,22.50
2018-02-05T16:58:44.097Z,20.33
2018-02-05T17:01:12.505Z,23.07
2018-02-05T17:03:40.917Z,21.77
2018-02-05T17:06:09.372Z,22.00
2018-02-05T17:08:37.793Z,21.60
2018-02-05T17:11:06.177Z,21.00
2018-02-05T17:13:34.644Z,22.00
2018-02-05T17:16:03.057Z,21.57
2018-02-05T17:18:31.445Z,22.50
2018-02-05T17:20:59.907Z,21.40
2018-02-05T17:23:28.318Z,23.27
2018-02-05T17:25:56.724Z,24.93
2018-02-05T17:28:25.180Z,23.67
2018-02-05T17:30:53.589Z,25.67
2018-02-05T17:33:21.981Z,23.57
2018-02-05T17:35:50.412Z,23.13
2018-02-05T17:38:18.830Z,22.23
2018-02-05T17:40:47.251Z,20.97
2018-02-05T17:43:15.686Z,21.13
2018-02-05T17:45:44.103Z,21.87
2018-02-05T17:48:12.491Z,21.93
2018-02-05T17:50:40.953Z,22.43
2018-02-05T17:53:09.394Z,22.00
2018-02-05T17:55:37.797Z,21.93
2018-02-05T17:58:06.326Z,21.07
2018-02-05T18:00:34.837Z,21.70
2018-02-05T18:03:03.277Z,21.57
2018-02-05T18:05:31.730Z,22.37
2018-02-05T18:08:00.124Z,21.63
2018-02-05T18:10:28.523Z,20.77
2018-02-05T18:12:56.953Z,21.33
2018-02-05T18:15:25.345Z,20.07
2018-02-05T18:17:53.741Z,20.10
2018-02-05T18:20:22.191Z,21.03
2018-02-05T18:22:50.605Z,20.50
2018-02-05T18:25:19.009Z,20.93
2018-02-05T18:27:47.461Z,21.07
2018-02-05T18:30:15.876Z,20.67
2018-02-05T18:32:44.269Z,28.13
2018-02-05T18:35:13.313Z,24.40
2018-02-05T18:37:41.713Z,22.13
2018-02-05T18:40:10.190Z,21.23
2018-02-05T18:42:38.626Z,20.67
2018-02-05T18:45:07.026Z,20.10
2018-02-05T18:47:35.425Z,20.93
2018-02-05T18:50:03.911Z,20.97
2018-02-05T18:52:32.353Z,20.57
2018-02-05T18:55:00.770Z,18.40
2018-02-05T18:57:29.275Z,16.93
2018-02-05T18:59:57.711Z,17.13
2018-02-05T19:02:26.120Z,16.50
2018-02-05T19:04:54.693Z,16.13
2018-02-05T19:07:23.087Z,17.43
2018-02-05T19:09:51.483Z,18.23
2018-02-05T19:12:19.925Z,16.07
2018-02-05T19:14:48.317Z,16.17
2018-02-05T19:17:16.731Z,16.43
2018-02-05T19:19:45.185Z,16.50
2018-02-05T19:22:13.606Z,17.37
2018-02-05T19:24:42.013Z,15.83
2018-02-05T19:27:10.465Z,17.23
2018-02-05T19:29:38.852Z,17.30
2018-02-05T19:32:07.250Z,15.47
2018-02-05T19:34:35.712Z,14.60
2018-02-05T19:37:04.134Z,15.53
2018-02-05T19:39:32.544Z,14.23
2018-02-05T19:42:01.000Z,14.60
2018-02-05T19:44:29.452Z,14.37
2018-02-05T19:46:57.861Z,13.93
2018-02-05T19:49:26.293Z,15.57
2018-02-05T19:51:54.766Z,17.53
2018-02-05T19:54:23.161Z,14.90
2018-02-05T19:56:51.597Z,12.30
2018-02-05T19:59:19.979Z,12.67
2018-02-05T20:01:48.367Z,13.00
2018-02-05T20:04:16.816Z,16.87
2018-02-05T20:06:45.216Z,12.20
2018-02-05T20:09:13.598Z,9.77
2018-02-05T20:11:42.074Z,9.70
2018-02-05T20:14:10.457Z,9.17
2018-02-05T20:16:38.868Z,10.03
2018-02-05T20:19:07.305Z,9.37
2018-02-05T20:21:35.706Z,10.17
2018-02-05T20:24:04.116Z,9.60
2018-02-05T20:26:32.558Z,11.27
2018-02-05T20:29:00.949Z,13.20
2018-02-05T20:31:29.354Z,10.10
2018-02-05T20:33:57.940Z,12.23
2018-02-05T20:36:26.348Z,11.07
2018-02-05T20:38:54.757Z,11.73
2018-02-05T20:41:23.212Z,12.50
2018-02-05T20:43:51.606Z,11.03
2018-02-05T20:46:20.013Z,11.37
2018-02-05T20:48:48.460Z,11.43
2018-02-05T20:51:16.878Z,10.93
2018-02-05T20:53:45.292Z,12.27
2018-02-05T20:56:13.772Z,11.73
2018-02-05T20:58:42.207Z,12.23
2018-02-05T21:01:10.627Z,13.33
2018-02-05T21:03:39.072Z,11.33
2018-02-05T21:06:07.464Z,11.40
2018-02-05T21:08:35.870Z,12.17
2018-02-05T21:11:04.317Z,10.90
2018-02-05T21:13:32.710Z,10.37
2018-02-05T21:16:01.116Z,11.50
2018-02-05T21:18:29.548Z,11.83
2018-02-05T21:20:57.961Z,11.47
2018-02-05T21:23:26.348Z,10.67
2018-02-05T21:25:54.828Z,10.70
2018-02-05T21:28:23.221Z,10.00
2018-02-05T21:30:51.624Z,10.10
2018-02-05T21:33:20.097Z,10.70
2018-02-05T21:35:48.484Z,10.60
2018-02-05T21:38:16.898Z,10.83
2018-02-05T21:40:45.345Z,9.97
2018-02-05T21:43:13.762Z,10.80
2018-02-05T21:45:42.166Z,10.07
2018-02-05T21:48:10.625Z,9.67
2018-02-05T21:50:39.013Z,9.33
2018-02-05T21:53:07.401Z,9.47
2018-02-05T21:55:35.849Z,9.63
2018-02-05T21:58:04.265Z,10.23
2018-02-05T22:00:32.677Z,9.83
2018-02-05T22:03:01.133Z,9.50
2018-02-05T22:05:29.520Z,9.47
2018-02-05T22:07:57.959Z,10.27
2018-02-05T22:10:26.404Z,10.10
2018-02-05T22:12:54.819Z,9.83
2018-02-05T22:15:23.241Z,10.67
2018-02-05T22:17:51.681Z,9.70
2018-02-05T22:20:20.086Z,8.63
2018-02-05T22:22:48.485Z,9.70
2018-02-05T22:25:16.941Z,9.33
2018-02-05T22:27:45.351Z,9.03
2018-02-05T22:30:13.768Z,7.97
2018-02-05T22:32:42.916Z,8.10
2018-02-05T22:35:11.342Z,7.67
2018-02-05T22:37:39.743Z,7.93
2018-02-05T22:40:08.188Z,7.13
2018-02-05T22:42:36.600Z,7.63
2018-02-05T22:45:05.013Z,7.60
2018-02-05T22:47:33.461Z,6.23
2018-02-05T22:50:01.866Z,8.10
2018-02-05T22:52:30.266Z,7.63
2018-02-05T22:54:58.713Z,7.30
2018-02-05T22:57:27.116Z,6.53
2018-02-05T22:59:55.557Z,6.97
2018-02-05T23:02:23.981Z,6.00
2018-02-05T23:04:52.392Z,19.20
2018-02-05T23:07:20.781Z,9.70
2018-02-05T23:09:49.228Z,10.37
2018-02-05T23:12:17.621Z,7.20
2018-02-05T23:14:46.034Z,9.07
2018-02-05T23:17:14.489Z,8.90
2018-02-05T23:19:42.893Z,7.83
2018-02-05T23:22:11.297Z,6.47
2018-02-05T23:24:39.741Z,6.60
2018-02-05T23:27:08.133Z,7.43
2018-02-05T23:29:36.518Z,6.33
2018-02-05T23:32:04.938Z,7.00
2018-02-05T23:34:33.318Z,6.47
2018-02-05T23:37:01.713Z,6.83
2018-02-05T23:39:30.346Z,7.10
2018-02-05T23:41:58.728Z,7.87
2018-02-05T23:44:27.132Z,8.03
2018-02-05T23:46:55.597Z,6.63
2018-02-05T23:49:23.989Z,7.37
2018-02-05T23:51:52.393Z,6.87
2018-02-05T23:54:20.821Z,7.40
2018-02-05T23:56:49.208Z,6.73
2018-02-05T23:59:17.592Z,7.20
